Time;durP1;ratioP1;P1;durP2;ratioP2;P2;SDS_P1;SDS_P2;PMS_P1;PMS_P2;Temp;Humidity;BMP_temperature;BMP_pressure;BME280_temperature;BME280_humidity;BME280_pressure;Samples;Min_cycle;Max_cycle;Signal;HPM_P1;HPM_P2
2022/01/11 00:00:31;;;;;;;189.20;47.30;;;-0.10;99.90;;;;;;4941720;28;20118;-86
2022/01/11 00:02:57;;;;;;;153.05;44.88;;;-0.60;99.90;;;;;;4924244;28;20094;-87
2022/01/11 00:05:30;;;;;;;203.38;46.67;;;-0.60;99.90;;;;;;4938980;28;20047;-86
2022/01/11 00:07:57;;;;;;;164.48;48.53;;;-0.70;99.90;;;;;;4944294;28;20039;-86
2022/01/11 00:12:52;;;;;;;244.80;53.72;;;0.10;99.90;;;;;;4960865;28;20079;-87
2022/01/11 00:15:18;;;;;;;217.57;52.55;;;-0.60;99.90;;;;;;4925334;28;20416;-86
2022/01/11 00:17:43;;;;;;;247.32;52.33;;;-0.60;99.90;;;;;;4922645;28;20039;-86
2022/01/11 00:20:13;;;;;;;355.73;62.85;;;0.50;99.90;;;;;;4941600;28;20049;-86
2022/01/11 00:22:57;;;;;;;283.42;59.95;;;-0.70;99.90;;;;;;4945419;28;20039;-86
2022/01/11 00:25:22;;;;;;;266.73;54.95;;;-0.70;99.90;;;;;;4964871;28;20043;-86
2022/01/11 00:27:48;;;;;;;242.90;54.70;;;-0.70;99.90;;;;;;4941810;28;20404;-86
2022/01/11 00:30:14;;;;;;;348.58;63.70;;;-0.70;99.90;;;;;;4944116;28;20532;-86
2022/01/11 00:32:45;;;;;;;278.92;58.22;;;-0.70;99.90;;;;;;4945058;28;20113;-86
2022/01/11 00:35:15;;;;;;;306.70;56.75;;;0.60;99.90;;;;;;4945395;28;20382;-86
2022/01/11 00:37:41;;;;;;;350.63;64.25;;;-0.70;99.90;;;;;;4945559;28;20429;-86
2022/01/11 00:40:08;;;;;;;472.75;75.80;;;0.40;99.90;;;;;;4942975;28;20043;-86
2022/01/11 00:42:34;;;;;;;366.33;70.20;;;-0.70;99.90;;;;;;4964703;28;20035;-86
2022/01/11 00:45:02;;;;;;;302.88;60.60;;;-0.70;99.90;;;;;;4952422;28;20070;-86
2022/01/11 00:47:28;;;;;;;405.90;71.10;;;-0.70;99.90;;;;;;4936512;28;20041;-86
2022/01/11 00:49:55;;;;;;;442.45;70.25;;;-0.70;99.90;;;;;;4925769;28;20051;-87
2022/01/11 00:52:21;;;;;;;371.80;63.00;;;-0.70;99.90;;;;;;4937276;28;20118;-86
2022/01/11 00:54:47;;;;;;;398.40;59.80;;;0.10;99.90;;;;;;4948626;28;20900;-86
2022/01/11 00:57:13;;;;;;;288.83;57.78;;;-0.70;99.90;;;;;;4911355;28;20067;-86
2022/01/11 00:59:38;;;;;;;474.88;74.32;;;-0.30;99.90;;;;;;4926526;28;20039;-86
2022/01/11 01:02:04;;;;;;;337.55;65.63;;;-0.70;99.90;;;;;;4942711;28;20039;-86
2022/01/11 01:04:30;;;;;;;491.48;85.05;;;-0.70;99.90;;;;;;4937771;28;20054;-86
2022/01/11 01:06:56;;;;;;;405.08;70.45;;;-0.70;99.90;;;;;;4953264;28;20062;-86
2022/01/11 01:09:24;;;;;;;443.30;84.05;;;-0.60;99.90;;;;;;4934852;28;20494;-86
2022/01/11 01:11:50;;;;;;;389.52;69.15;;;-0.60;99.90;;;;;;4943201;28;20050;-86
2022/01/11 01:14:17;;;;;;;419.52;75.40;;;-0.60;99.90;;;;;;4915255;28;20046;-86
2022/01/11 01:16:43;;;;;;;305.20;56.17;;;-0.70;99.90;;;;;;4949046;28;20039;-86
2022/01/11 01:19:08;;;;;;;310.33;58.13;;;-0.70;99.90;;;;;;4937213;28;20039;-86
2022/01/11 01:21:38;;;;;;;225.68;45.70;;;-0.70;99.90;;;;;;4935013;28;20459;-86
2022/01/11 01:24:07;;;;;;;258.40;48.35;;;-0.70;99.90;;;;;;4944533;28;20046;-86
2022/01/11 01:26:32;;;;;;;497.05;81.78;;;-0.70;99.90;;;;;;4934966;28;20499;-86
2022/01/11 01:29:00;;;;;;;306.52;54.65;;;-1.80;99.90;;;;;;4930169;28;20071;-87
2022/01/11 01:31:27;;;;;;;283.92;48.38;;;-0.70;99.90;;;;;;4933806;28;20066;-86
2022/01/11 01:33:53;;;;;;;226.43;45.15;;;-0.80;99.90;;;;;;4964389;28;20405;-86
2022/01/11 01:36:19;;;;;;;311.52;49.28;;;-0.70;99.90;;;;;;4932244;28;20389;-86
2022/01/11 01:38:45;;;;;;;308.30;54.03;;;-0.80;99.90;;;;;;4978613;28;20081;-86
2022/01/11 01:41:16;;;;;;;280.50;52.83;;;-0.80;99.90;;;;;;4931826;28;20034;-86
2022/01/11 01:43:44;;;;;;;266.93;45.90;;;-0.80;99.90;;;;;;4964210;28;20038;-86
2022/01/11 01:46:10;;;;;;;272.73;51.95;;;0.50;99.90;;;;;;4946797;28;20289;-86
2022/01/11 01:48:37;;;;;;;261.85;52.70;;;-0.80;99.90;;;;;;4947334;28;20042;-86
2022/01/11 01:51:04;;;;;;;223.80;46.92;;;-0.80;99.90;;;;;;4971765;28;20046;-86
2022/01/11 01:53:30;;;;;;;233.45;47.25;;;-0.80;99.90;;;;;;4965043;28;20045;-86
2022/01/11 01:55:56;;;;;;;251.98;47.90;;;-0.90;99.90;;;;;;4944467;28;20045;-86
2022/01/11 01:58:23;;;;;;;257.20;51.03;;;-0.80;99.90;;;;;;4946830;28;20504;-86
2022/01/11 02:00:54;;;;;;;210.32;38.35;;;-0.80;99.90;;;;;;4959682;28;20030;-86
2022/01/11 02:03:29;;;;;;;275.77;49.30;;;-0.90;99.90;;;;;;4944903;28;20121;-86
2022/01/11 02:05:56;;;;;;;284.45;46.00;;;-0.90;99.90;;;;;;4944467;28;20085;-86
2022/01/11 02:08:23;;;;;;;244.73;46.75;;;-0.80;99.90;;;;;;4961428;28;20121;-86
2022/01/11 02:10:49;;;;;;;211.13;41.33;;;-0.90;99.90;;;;;;4954593;28;20062;-86
2022/01/11 02:13:16;;;;;;;329.58;53.90;;;-0.90;99.90;;;;;;4975337;28;20050;-86
2022/01/11 02:15:42;;;;;;;276.95;54.25;;;-0.90;99.90;;;;;;4966567;28;20038;-86
2022/01/11 02:18:16;;;;;;;237.48;46.53;;;-0.90;99.90;;;;;;4947243;28;20037;-86
2022/01/11 02:20:45;;;;;;;244.70;42.53;;;-0.90;99.90;;;;;;4962850;28;20053;-86
2022/01/11 02:23:13;;;;;;;284.13;47.33;;;-1.00;99.90;;;;;;4963554;28;20086;-86
2022/01/11 02:25:39;;;;;;;254.75;46.15;;;-1.00;99.90;;;;;;4960335;28;20038;-86
2022/01/11 02:28:06;;;;;;;313.77;57.10;;;-1.00;99.90;;;;;;4978735;28;20046;-86
2022/01/11 02:30:33;;;;;;;247.18;45.13;;;-0.80;99.90;;;;;;4975030;28;20522;-85
2022/01/11 02:33:02;;;;;;;303.23;52.50;;;-0.30;99.90;;;;;;4953817;28;20061;-86
2022/01/11 02:35:28;;;;;;;165.85;40.10;;;-1.10;99.90;;;;;;4969725;28;20050;-86
2022/01/11 02:37:54;;;;;;;211.55;41.05;;;-1.00;99.90;;;;;;4961807;28;20042;-86
2022/01/11 02:40:20;;;;;;;238.23;44.45;;;-1.10;99.90;;;;;;4962374;28;20045;-85
2022/01/11 02:42:46;;;;;;;241.55;39.30;;;0.40;99.90;;;;;;4950120;28;20034;-86
2022/01/11 02:45:17;;;;;;;131.48;31.42;;;0.10;99.90;;;;;;4974889;28;20047;-85
2022/01/11 02:47:47;;;;;;;159.07;32.50;;;-1.10;99.90;;;;;;4976591;28;20046;-86
2022/01/11 02:50:14;;;;;;;153.18;33.17;;;-1.10;99.90;;;;;;4978215;28;20121;-86
2022/01/11 02:52:40;;;;;;;123.40;31.33;;;0.20;99.90;;;;;;4963581;28;20046;-86
2022/01/11 02:55:13;;;;;;;195.98;38.28;;;-1.10;99.90;;;;;;4971065;28;20097;-86
2022/01/11 02:57:38;;;;;;;209.30;38.95;;;-1.00;99.90;;;;;;4963906;28;20043;-86
2022/01/11 03:00:14;;;;;;;204.77;36.13;;;-1.10;99.90;;;;;;4977589;28;20484;-86
2022/01/11 03:02:39;;;;;;;150.30;33.60;;;-1.20;99.90;;;;;;4981528;28;20053;-86
2022/01/11 03:05:07;;;;;;;190.25;41.08;;;-1.20;99.90;;;;;;4965068;28;20042;-86
2022/01/11 03:07:33;;;;;;;208.85;39.65;;;-1.20;99.90;;;;;;4949499;28;20074;-86
2022/01/11 03:12:24;;;;;;;139.73;32.22;;;0.10;99.90;;;;;;4977650;28;20074;-86
2022/01/11 03:14:50;;;;;;;240.15;42.63;;;-1.20;99.90;;;;;;4952822;28;20078;-86
2022/01/11 03:17:15;;;;;;;227.10;43.00;;;-1.20;99.90;;;;;;4974259;28;20074;-86
2022/01/11 03:19:41;;;;;;;177.43;39.28;;;-1.20;99.90;;;;;;4965655;28;20089;-86
2022/01/11 03:22:07;;;;;;;237.15;41.63;;;-1.20;99.90;;;;;;4965184;28;20490;-86
2022/01/11 03:24:32;;;;;;;196.13;34.95;;;-1.20;99.90;;;;;;4964802;28;20038;-86
2022/01/11 03:26:58;;;;;;;220.55;38.63;;;-1.20;99.90;;;;;;4932141;28;20048;-86
2022/01/11 03:29:23;;;;;;;216.52;39.58;;;-1.30;99.90;;;;;;4932549;28;20038;-86
2022/01/11 03:31:49;;;;;;;203.77;40.22;;;-1.30;99.90;;;;;;4979785;28;20125;-89
2022/01/11 03:34:19;;;;;;;217.88;42.88;;;-1.30;99.90;;;;;;4978235;28;20050;-86
2022/01/11 03:36:45;;;;;;;193.90;41.13;;;-1.30;99.90;;;;;;4964290;28;20823;-85
2022/01/11 03:39:11;;;;;;;166.85;35.78;;;-1.30;99.90;;;;;;4971649;28;20068;-86
2022/01/11 03:41:37;;;;;;;258.80;42.25;;;-1.30;99.90;;;;;;4961966;28;20022;-85
2022/01/11 03:44:03;;;;;;;197.10;36.88;;;-1.30;99.90;;;;;;5003491;28;20049;-86
2022/01/11 03:46:29;;;;;;;199.77;39.28;;;-1.40;99.90;;;;;;5004232;28;20018;-86
2022/01/11 03:48:55;;;;;;;143.43;36.35;;;-1.30;99.90;;;;;;4984031;28;20045;-86
2022/01/11 03:51:21;;;;;;;180.50;34.85;;;-0.20;99.90;;;;;;4976796;28;20058;-86
2022/01/11 03:54:01;;;;;;;80.38;25.33;;;-1.40;99.90;;;;;;4967586;28;20042;-86
2022/01/11 03:56:27;;;;;;;161.45;41.15;;;-1.40;99.90;;;;;;4996256;28;20073;-86
2022/01/11 03:58:53;;;;;;;105.45;34.17;;;-1.40;99.90;;;;;;4957273;28;20038;-86
2022/01/11 04:01:19;;;;;;;156.68;37.88;;;-0.60;99.90;;;;;;4992548;28;20038;-86
2022/01/11 04:03:49;;;;;;;163.40;39.70;;;-0.20;99.90;;;;;;4977574;28;20034;-86
2022/01/11 04:06:16;;;;;;;133.48;40.47;;;-1.40;99.90;;;;;;4994404;28;20050;-86
2022/01/11 04:08:44;;;;;;;119.60;37.47;;;-1.40;99.90;;;;;;4962169;28;20042;-86
2022/01/11 04:11:11;;;;;;;119.78;37.92;;;-1.40;99.90;;;;;;4945742;28;20171;-86
2022/01/11 04:13:37;;;;;;;132.85;39.55;;;-1.40;99.90;;;;;;4929600;28;20042;-86
2022/01/11 04:16:03;;;;;;;99.25;35.75;;;-1.30;99.90;;;;;;4964720;28;20137;-86
2022/01/11 04:18:29;;;;;;;98.32;36.83;;;-1.30;99.90;;;;;;4981262;28;20066;-86
2022/01/11 04:20:54;;;;;;;88.28;32.90;;;-1.30;99.90;;;;;;4987202;28;20038;-86
2022/01/11 04:23:20;;;;;;;91.15;31.20;;;-1.30;99.90;;;;;;4962963;28;20048;-86
2022/01/11 04:25:46;;;;;;;82.65;32.28;;;-1.30;99.90;;;;;;4982226;28;20039;-86
2022/01/11 04:28:12;;;;;;;81.85;31.77;;;-1.30;99.90;;;;;;4996712;28;20324;-86
2022/01/11 04:30:37;;;;;;;95.07;34.30;;;-1.30;99.90;;;;;;4983072;28;20043;-86
2022/01/11 04:33:04;;;;;;;85.35;32.25;;;-1.30;99.90;;;;;;4965311;28;20074;-86
2022/01/11 04:35:31;;;;;;;84.85;30.85;;;-1.30;99.90;;;;;;4966650;28;20121;-86
2022/01/11 04:37:56;;;;;;;97.60;34.13;;;-1.30;99.90;;;;;;4959855;28;20045;-86
2022/01/11 04:40:22;;;;;;;112.90;34.83;;;-1.30;99.90;;;;;;4962942;28;20015;-86
2022/01/11 04:42:49;;;;;;;118.68;35.45;;;-1.30;99.90;;;;;;4963885;28;20022;-86
2022/01/11 04:45:15;;;;;;;122.65;36.13;;;-0.90;99.90;;;;;;4960130;28;20065;-86
2022/01/11 04:47:41;;;;;;;139.55;37.38;;;-1.30;99.90;;;;;;4975091;28;20046;-86
2022/01/11 04:50:09;;;;;;;126.40;38.58;;;-0.60;99.90;;;;;;4947979;28;20045;-86
2022/01/11 04:52:35;;;;;;;145.35;36.33;;;-1.30;99.90;;;;;;4963784;28;20038;-86
2022/01/11 04:55:01;;;;;;;144.68;38.80;;;-1.30;99.90;;;;;;4964602;28;20054;-86
2022/01/11 04:57:26;;;;;;;145.60;40.33;;;-1.30;99.90;;;;;;4980270;28;20037;-86
2022/01/11 04:59:52;;;;;;;143.90;40.13;;;-1.20;99.90;;;;;;4982385;28;20030;-87
2022/01/11 05:02:19;;;;;;;132.00;39.97;;;-1.20;99.90;;;;;;4946957;28;20038;-87
2022/01/11 05:04:45;;;;;;;159.50;42.25;;;-1.20;99.90;;;;;;4971144;28;20042;-87
2022/01/11 05:07:10;;;;;;;206.15;44.70;;;-1.20;99.90;;;;;;4934282;28;20039;-86
2022/01/11 05:09:36;;;;;;;136.73;35.65;;;-1.20;99.90;;;;;;4963473;28;20058;-86
2022/01/11 05:12:02;;;;;;;160.95;42.67;;;-1.20;99.90;;;;;;4962284;28;20042;-86
2022/01/11 05:14:28;;;;;;;134.00;36.15;;;-1.20;99.90;;;;;;4962710;28;20045;-86
2022/01/11 05:16:53;;;;;;;125.07;41.25;;;-1.30;99.90;;;;;;4969400;28;20704;-86
2022/01/11 05:19:19;;;;;;;161.85;43.20;;;-1.30;99.90;;;;;;4968091;28;20085;-86
2022/01/11 05:21:45;;;;;;;129.07;39.35;;;-1.20;99.90;;;;;;4944689;28;20038;-86
2022/01/11 05:24:11;;;;;;;129.60;42.00;;;-1.20;99.90;;;;;;4956070;28;20038;-86
2022/01/11 05:26:39;;;;;;;130.80;42.75;;;-0.10;99.90;;;;;;4946875;28;20070;-86
2022/01/11 05:29:05;;;;;;;110.97;38.67;;;-1.30;99.90;;;;;;4986037;28;20038;-86
2022/01/11 05:31:33;;;;;;;128.05;38.97;;;-1.30;99.90;;;;;;4959321;28;20030;-86
2022/01/11 05:33:58;;;;;;;137.20;42.10;;;-1.00;99.90;;;;;;4971093;28;20054;-87
2022/01/11 05:36:24;;;;;;;126.38;39.35;;;-1.30;99.90;;;;;;4975835;28;20050;-86
2022/01/11 05:38:50;;;;;;;115.72;39.53;;;-1.30;99.90;;;;;;4977700;28;20037;-86
2022/01/11 05:41:15;;;;;;;120.05;40.72;;;-1.30;99.90;;;;;;4976503;28;20034;-86
2022/01/11 05:43:41;;;;;;;126.30;41.42;;;-1.30;99.90;;;;;;4945620;28;20042;-86
2022/01/11 05:46:07;;;;;;;128.10;43.80;;;0.10;99.90;;;;;;4976694;28;20074;-86
2022/01/11 05:48:33;;;;;;;128.38;42.92;;;-1.30;99.90;;;;;;4976686;28;20319;-87
2022/01/11 05:50:59;;;;;;;118.70;40.22;;;-1.30;99.90;;;;;;4974690;28;20101;-86
2022/01/11 05:53:26;;;;;;;107.28;41.13;;;-1.30;99.90;;;;;;4972624;28;20038;-87
2022/01/11 05:55:52;;;;;;;116.32;39.67;;;-1.30;99.90;;;;;;4986881;28;20035;-87
2022/01/11 05:58:17;;;;;;;133.23;43.55;;;-1.30;99.90;;;;;;4963158;28;20114;-86
2022/01/11 06:00:43;;;;;;;118.22;42.40;;;-1.30;99.90;;;;;;4954043;28;20074;-87
2022/01/11 06:03:09;;;;;;;148.50;46.55;;;-1.30;99.90;;;;;;4970633;28;20124;-87
2022/01/11 06:05:38;;;;;;;150.88;45.55;;;-1.20;99.90;;;;;;4938115;28;20046;-86
2022/01/11 06:08:06;;;;;;;158.65;46.28;;;-1.20;99.90;;;;;;4969346;28;20042;-87
2022/01/11 06:10:32;;;;;;;154.63;45.75;;;-1.20;99.90;;;;;;4953804;28;20042;-86
2022/01/11 06:12:58;;;;;;;153.45;44.80;;;-1.20;99.90;;;;;;4955449;28;20121;-87
2022/01/11 06:15:24;;;;;;;164.30;48.45;;;-1.10;99.90;;;;;;4955621;28;20141;-87
2022/01/11 06:17:50;;;;;;;164.20;45.92;;;-0.20;99.90;;;;;;4923824;28;20037;-87
2022/01/11 06:20:16;;;;;;;136.10;45.13;;;-1.10;99.90;;;;;;4955977;28;20037;-86
2022/01/11 06:22:42;;;;;;;149.60;42.53;;;0.00;99.90;;;;;;4923261;28;20419;-87
2022/01/11 06:25:08;;;;;;;132.40;42.90;;;0.20;99.90;;;;;;4939653;28;20547;-87
2022/01/11 06:27:40;;;;;;;124.90;42.85;;;-1.10;99.90;;;;;;4953861;28;20042;-86
2022/01/11 06:30:08;;;;;;;115.35;33.63;;;-1.20;99.90;;;;;;4955889;28;20752;-87
2022/01/11 06:32:33;;;;;;;113.05;38.85;;;-1.20;99.90;;;;;;4940800;28;20046;-87
2022/01/11 06:34:59;;;;;;;106.38;37.88;;;-0.50;99.90;;;;;;4959816;28;20499;-87
2022/01/11 06:37:25;;;;;;;115.15;39.28;;;-1.20;99.90;;;;;;4959361;28;20483;-87
2022/01/11 06:39:51;;;;;;;104.35;37.13;;;-1.20;99.90;;;;;;4959044;28;20034;-87
2022/01/11 06:42:17;;;;;;;116.85;38.28;;;-1.20;99.90;;;;;;4958958;28;20057;-87
2022/01/11 06:44:43;;;;;;;100.38;35.85;;;0.10;99.90;;;;;;4974849;28;20101;-87
2022/01/11 06:47:09;;;;;;;99.30;35.38;;;-1.30;99.90;;;;;;4959035;28;20045;-87
2022/01/11 06:49:35;;;;;;;92.10;34.25;;;-0.90;99.90;;;;;;4942314;28;20038;-87
2022/01/11 06:52:00;;;;;;;100.88;35.88;;;-1.30;99.90;;;;;;4943469;28;20041;-87
2022/01/11 06:54:26;;;;;;;74.90;31.38;;;-1.30;99.90;;;;;;4942646;28;20411;-87
2022/01/11 06:56:52;;;;;;;83.28;34.72;;;-1.30;99.90;;;;;;4958780;28;20113;-87
2022/01/11 06:59:18;;;;;;;91.35;34.88;;;-1.40;99.90;;;;;;4958759;28;20068;-87
2022/01/11 07:01:43;;;;;;;89.35;35.28;;;-1.40;99.90;;;;;;4959055;28;20085;-87
2022/01/11 07:04:09;;;;;;;98.97;36.92;;;-1.40;99.90;;;;;;4957587;28;20129;-86
2022/01/11 07:06:34;;;;;;;88.45;34.92;;;-1.40;99.90;;;;;;4942554;28;20049;-87
2022/01/11 07:09:00;;;;;;;93.60;34.75;;;-0.10;99.90;;;;;;4958648;28;20092;-87
2022/01/11 07:11:26;;;;;;;93.72;36.85;;;-1.40;99.90;;;;;;4958781;28;20434;-87
2022/01/11 07:13:52;;;;;;;88.20;35.67;;;-1.40;99.90;;;;;;4957933;28;20137;-87
2022/01/11 07:16:17;;;;;;;85.00;33.58;;;-1.40;99.90;;;;;;4943108;28;20070;-86
2022/01/11 07:18:44;;;;;;;77.57;32.90;;;-1.50;99.90;;;;;;4942761;28;20175;-87
2022/01/11 07:21:10;;;;;;;78.40;33.40;;;-0.40;99.90;;;;;;4974348;28;20043;-87
2022/01/11 07:23:36;;;;;;;78.70;32.92;;;-1.50;99.90;;;;;;4957406;28;20030;-87
2022/01/11 07:26:02;;;;;;;86.25;33.80;;;-1.60;99.90;;;;;;4926791;28;20057;-87
2022/01/11 07:28:31;;;;;;;83.10;34.53;;;-1.60;99.90;;;;;;4972996;28;20065;-87
2022/01/11 07:30:57;;;;;;;94.15;34.08;;;-1.60;99.90;;;;;;4942566;28;20192;-87
2022/01/11 07:33:25;;;;;;;75.40;33.67;;;-1.50;99.90;;;;;;4957728;28;20435;-86
2022/01/11 07:35:51;;;;;;;76.57;30.75;;;-2.70;99.90;;;;;;4941258;28;21850;-86
2022/01/11 07:38:16;;;;;;;70.97;31.40;;;-1.60;99.90;;;;;;4957570;28;20030;-87
2022/01/11 07:40:42;;;;;;;80.70;33.25;;;-1.00;99.90;;;;;;4941795;28;20040;-84
2022/01/11 07:43:08;;;;;;;76.70;33.10;;;0.10;99.90;;;;;;4948387;28;20513;-85
2022/01/11 07:45:34;;;;;;;71.55;31.95;;;0.00;99.90;;;;;;4936937;28;20045;-84
2022/01/11 07:48:00;;;;;;;75.07;32.05;;;-0.40;99.90;;;;;;4941287;28;20046;-83
2022/01/11 07:50:26;;;;;;;75.93;33.42;;;-1.50;99.90;;;;;;4957297;28;20038;-86
2022/01/11 07:52:59;;;;;;;71.88;33.45;;;-0.40;99.90;;;;;;4945528;28;20042;-86
2022/01/11 07:55:25;;;;;;;80.18;33.13;;;-1.50;99.90;;;;;;4951872;28;20038;-86
2022/01/11 07:57:51;;;;;;;75.10;32.30;;;-1.50;99.90;;;;;;4951339;28;20070;-87
2022/01/11 08:00:17;;;;;;;76.40;32.72;;;-0.50;99.90;;;;;;4919802;28;20049;-89
2022/01/11 08:02:43;;;;;;;77.50;33.10;;;-0.40;99.90;;;;;;4953078;28;20038;-88
2022/01/11 08:05:09;;;;;;;77.03;33.42;;;0.10;99.90;;;;;;4918969;28;20042;-88
2022/01/11 08:07:35;;;;;;;79.57;33.38;;;-1.40;99.90;;;;;;4935671;28;20113;-86
2022/01/11 08:10:00;;;;;;;76.40;30.40;;;-1.30;99.90;;;;;;4936829;28;20038;-83
2022/01/11 08:12:26;;;;;;;76.28;31.55;;;-0.30;99.90;;;;;;4935770;28;20507;-84
2022/01/11 08:14:52;;;;;;;73.97;32.38;;;-1.20;99.90;;;;;;4934767;28;20663;-85
2022/01/11 08:17:18;;;;;;;67.50;30.98;;;-1.20;99.90;;;;;;4967342;28;20038;-84
2022/01/11 08:19:44;;;;;;;71.00;31.35;;;-1.10;99.90;;;;;;4935959;28;20169;-85
2022/01/11 08:22:10;;;;;;;65.88;30.35;;;-1.00;99.90;;;;;;4967196;28;20498;-85
2022/01/11 08:24:38;;;;;;;65.35;28.90;;;-1.00;99.90;;;;;;4917752;28;20121;-85
2022/01/11 08:27:04;;;;;;;70.50;31.10;;;-0.70;99.90;;;;;;4950084;28;20073;-87
2022/01/11 08:29:30;;;;;;;74.05;31.70;;;-0.90;99.90;;;;;;4934579;28;20046;-87
2022/01/11 08:31:57;;;;;;;68.15;29.52;;;0.10;99.90;;;;;;4952298;28;20065;-86
2022/01/11 08:34:22;;;;;;;73.28;30.70;;;-0.90;99.90;;;;;;4960986;28;20058;-87
2022/01/11 08:36:54;;;;;;;80.70;33.33;;;-0.80;99.90;;;;;;4934676;28;20042;-91
2022/01/11 08:39:20;;;;;;;83.95;33.17;;;-1.50;99.90;;;;;;4950358;28;20130;-87
2022/01/11 08:41:48;;;;;;;87.35;36.03;;;-0.60;99.90;;;;;;4950181;28;20109;-87
2022/01/11 08:44:20;;;;;;;81.45;36.58;;;-0.70;99.90;;;;;;4972515;28;20047;-85
2022/01/11 08:46:51;;;;;;;78.35;35.10;;;-0.30;99.90;;;;;;4965619;28;20046;-86
2022/01/11 08:49:20;;;;;;;81.70;35.95;;;0.80;99.90;;;;;;4965118;28;20053;-87
2022/01/11 08:51:46;;;;;;;77.90;35.90;;;0.20;99.90;;;;;;4950041;28;20050;-87
2022/01/11 08:54:12;;;;;;;79.15;33.97;;;-0.50;99.90;;;;;;4961537;28;20090;-89
2022/01/11 08:56:38;;;;;;;73.78;35.30;;;-1.10;99.90;;;;;;4949743;28;20121;-88
2022/01/11 08:59:05;;;;;;;75.07;35.35;;;0.10;99.90;;;;;;4946179;28;20512;-87
2022/01/11 09:01:31;;;;;;;83.28;36.35;;;-0.20;99.90;;;;;;4948406;28;20034;-87
2022/01/11 09:04:01;;;;;;;67.93;30.20;;;0.30;99.90;;;;;;4948523;28;20084;-87
2022/01/11 09:06:36;;;;;;;49.47;26.50;;;0.60;99.90;;;;;;4945754;28;20054;-85
2022/01/11 09:09:03;;;;;;;49.22;25.77;;;1.30;99.90;;;;;;4947499;28;20077;-81
2022/01/11 09:11:29;;;;;;;44.78;23.38;;;2.60;99.90;;;;;;4951491;28;20471;-85
2022/01/11 09:13:55;;;;;;;40.78;21.17;;;2.60;99.90;;;;;;4969616;28;20049;-88
2022/01/11 09:16:22;;;;;;;39.35;22.95;;;2.70;99.90;;;;;;4939575;28;20038;-91
2022/01/11 09:18:49;;;;;;;34.90;20.00;;;3.60;99.90;;;;;;4954510;28;20598;-85
2022/01/11 09:21:16;;;;;;;38.38;19.50;;;3.30;99.90;;;;;;4952722;28;20280;-82
2022/01/11 09:23:42;;;;;;;30.23;18.38;;;3.20;99.90;;;;;;4955508;28;20459;-84
2022/01/11 09:26:08;;;;;;;34.88;17.60;;;3.10;99.90;;;;;;4954463;28;20121;-85
2022/01/11 09:28:39;;;;;;;29.35;16.75;;;3.50;99.90;;;;;;4956352;28;20496;-85
2022/01/11 09:31:05;;;;;;;31.20;17.35;;;3.90;99.90;;;;;;4958183;28;20189;-84
2022/01/11 09:33:32;;;;;;;28.88;18.63;;;3.60;99.90;;;;;;4949231;28;20038;-84
2022/01/11 09:35:58;;;;;;;32.13;18.27;;;3.90;99.90;;;;;;4951475;28;20771;-84
2022/01/11 09:38:24;;;;;;;32.70;16.67;;;4.10;99.90;;;;;;4968252;28;20682;-84
2022/01/11 09:40:52;;;;;;;25.70;15.50;;;3.90;99.90;;;;;;4939894;28;20031;-84
2022/01/11 09:43:21;;;;;;;30.33;16.65;;;4.40;99.90;;;;;;4934073;28;20046;-84
2022/01/11 09:45:51;;;;;;;25.92;16.27;;;4.40;99.90;;;;;;4968755;28;20072;-84
2022/01/11 09:48:29;;;;;;;28.58;16.75;;;3.70;99.90;;;;;;4968462;28;20491;-87
2022/01/11 09:50:56;;;;;;;29.25;16.95;;;3.70;99.90;;;;;;4957098;28;20129;-84
2022/01/11 09:53:22;;;;;;;27.77;16.27;;;3.50;99.90;;;;;;4939324;28;20038;-86
2022/01/11 09:55:49;;;;;;;29.00;17.83;;;3.00;99.90;;;;;;4952669;28;20034;-86
2022/01/11 09:58:15;;;;;;;26.85;15.48;;;3.10;99.90;;;;;;4918689;28;20049;-86
2022/01/11 10:00:42;;;;;;;32.35;15.82;;;2.20;99.90;;;;;;4970209;28;20046;-85
2022/01/11 10:03:08;;;;;;;28.58;16.00;;;1.80;99.90;;;;;;4965485;28;20038;-86
2022/01/11 10:05:37;;;;;;;32.78;17.40;;;1.70;99.90;;;;;;4953425;28;20046;-85
2022/01/11 10:08:19;;;;;;;32.75;17.50;;;1.40;99.90;;;;;;4970414;28;20050;-85
2022/01/11 10:10:52;;;;;;;30.25;16.05;;;1.40;99.90;;;;;;4966935;28;20037;-85
2022/01/11 10:13:47;;;;;;;32.08;16.67;;;0.70;99.90;;;;;;4968380;28;20045;-85
2022/01/11 10:16:25;;;;;;;31.15;16.38;;;2.50;99.90;;;;;;4975097;28;20062;-84
2022/01/11 10:18:53;;;;;;;31.38;16.85;;;1.00;99.90;;;;;;4953214;28;20042;-85
2022/01/11 10:21:33;;;;;;;33.03;17.08;;;1.00;99.90;;;;;;4974958;28;20058;-85
2022/01/11 10:24:00;;;;;;;34.33;17.95;;;1.00;99.90;;;;;;4974584;28;20030;-85
2022/01/11 10:26:43;;;;;;;29.27;17.23;;;1.00;99.90;;;;;;4977420;28;20034;-84
2022/01/11 10:29:37;;;;;;;28.80;15.40;;;1.00;99.90;;;;;;4975011;28;20281;-86
2022/01/11 10:32:23;;;;;;;31.00;16.27;;;1.10;99.90;;;;;;4969375;28;20102;-85
2022/01/11 10:34:54;;;;;;;29.05;16.58;;;1.10;99.90;;;;;;4962068;28;20050;-86
2022/01/11 10:37:32;;;;;;;30.73;17.38;;;1.20;99.90;;;;;;4969777;28;20062;-86
2022/01/11 10:40:06;;;;;;;30.98;16.17;;;1.50;99.90;;;;;;4984158;28;20039;-86
2022/01/11 10:42:34;;;;;;;36.50;17.67;;;1.30;99.90;;;;;;4964954;28;20999;-86
2022/01/11 10:45:10;;;;;;;31.55;16.65;;;1.30;99.90;;;;;;4950759;28;20106;-85
2022/01/11 10:47:42;;;;;;;34.58;16.23;;;1.30;99.90;;;;;;4965245;28;20506;-86
2022/01/11 10:50:30;;;;;;;33.90;15.57;;;1.40;99.90;;;;;;4947670;28;20050;-85
2022/01/11 10:52:58;;;;;;;26.02;14.38;;;1.30;99.90;;;;;;4947971;28;20046;-84
2022/01/11 10:55:28;;;;;;;29.15;15.48;;;2.00;99.90;;;;;;4965306;28;20037;-85
2022/01/11 10:57:58;;;;;;;31.05;14.50;;;1.20;99.90;;;;;;4944727;28;20043;-86
2022/01/11 11:00:26;;;;;;;26.35;14.32;;;1.10;99.90;;;;;;4948598;28;20125;-86
2022/01/11 11:03:14;;;;;;;30.85;14.40;;;1.10;99.90;;;;;;4964818;28;20034;-86
2022/01/11 11:06:13;;;;;;;26.67;14.23;;;2.40;99.90;;;;;;4961636;28;20042;-86
2022/01/11 11:08:41;;;;;;;29.95;13.38;;;1.50;99.90;;;;;;4918220;28;20054;-86
2022/01/11 11:11:10;;;;;;;26.60;14.35;;;1.50;99.90;;;;;;4966298;28;20486;-86
2022/01/11 11:13:40;;;;;;;31.83;16.50;;;1.10;99.90;;;;;;4948458;28;20030;-86
2022/01/11 11:16:11;;;;;;;28.55;15.15;;;1.20;99.90;;;;;;4958735;28;20069;-88
2022/01/11 11:18:40;;;;;;;29.90;15.30;;;1.40;99.90;;;;;;4973006;28;20113;-88
2022/01/11 11:21:24;;;;;;;29.48;15.70;;;1.30;99.90;;;;;;4967155;28;20126;-89
2022/01/11 11:24:03;;;;;;;31.45;16.42;;;1.30;99.90;;;;;;4964724;28;20038;-89
2022/01/11 11:26:32;;;;;;;36.72;15.48;;;1.30;99.90;;;;;;4968879;28;20066;-90
2022/01/11 11:28:59;;;;;;;30.75;14.32;;;1.20;99.90;;;;;;4973150;28;20045;-90
2022/01/11 11:31:25;;;;;;;34.63;15.38;;;1.70;99.90;;;;;;4961362;28;20193;-90
2022/01/11 11:33:52;;;;;;;33.67;14.90;;;2.00;99.90;;;;;;4955860;28;20038;-90
2022/01/11 11:36:19;;;;;;;23.85;12.80;;;1.70;99.90;;;;;;4954636;28;20054;-90
2022/01/11 11:39:11;;;;;;;31.60;14.20;;;1.90;99.90;;;;;;4972019;28;20117;-89
2022/01/11 11:41:44;;;;;;;26.23;13.40;;;1.20;99.90;;;;;;4956566;28;20045;-90
2022/01/11 11:44:18;;;;;;;26.08;13.73;;;1.30;99.90;;;;;;4959391;28;20376;-87
2022/01/11 11:46:59;;;;;;;29.73;13.00;;;1.30;99.90;;;;;;4965919;28;20156;-87
2022/01/11 11:49:46;;;;;;;28.48;13.50;;;1.40;99.90;;;;;;4961112;28;20389;-87
2022/01/11 11:52:34;;;;;;;31.25;13.93;;;1.40;99.90;;;;;;4951408;28;20546;-87
2022/01/11 11:55:01;;;;;;;33.88;16.13;;;1.50;99.90;;;;;;4980333;28;20709;-87
2022/01/11 11:57:31;;;;;;;26.70;14.32;;;1.60;99.90;;;;;;4983931;28;20037;-87
2022/01/11 12:00:18;;;;;;;30.05;13.85;;;2.80;99.90;;;;;;4968595;28;20066;-87
2022/01/11 12:02:45;;;;;;;29.85;14.23;;;1.90;99.90;;;;;;4976806;28;20070;-88
2022/01/11 12:05:33;;;;;;;31.27;13.52;;;1.70;99.90;;;;;;4972219;28;20033;-87
2022/01/11 12:08:18;;;;;;;33.25;13.95;;;1.80;99.90;;;;;;4980933;28;20195;-87
2022/01/11 12:10:49;;;;;;;25.48;11.60;;;1.80;99.90;;;;;;4961936;28;20041;-87
2022/01/11 12:13:40;;;;;;;31.08;13.50;;;1.90;99.90;;;;;;4960771;28;20492;-87
2022/01/11 12:16:24;;;;;;;30.35;13.65;;;2.20;99.90;;;;;;4962890;28;20050;-87
2022/01/11 12:18:51;;;;;;;26.67;13.60;;;2.00;99.90;;;;;;4970928;28;20042;-85
2022/01/11 12:21:17;;;;;;;29.45;13.52;;;2.70;99.90;;;;;;4966018;28;20046;-87
2022/01/11 12:23:47;;;;;;;26.10;12.35;;;2.10;99.90;;;;;;4950704;28;20037;-87
2022/01/11 12:26:23;;;;;;;27.58;13.02;;;2.00;99.90;;;;;;4975966;28;20040;-88
2022/01/11 12:29:08;;;;;;;30.73;12.32;;;2.10;99.90;;;;;;4989863;28;20360;-87
2022/01/11 12:31:55;;;;;;;24.70;12.23;;;2.10;99.90;;;;;;4979064;28;20027;-88
2022/01/11 12:34:46;;;;;;;25.45;12.75;;;2.60;99.90;;;;;;4978092;28;20077;-87
2022/01/11 12:37:33;;;;;;;26.70;14.00;;;2.20;99.90;;;;;;4974719;28;20046;-87